Time;durP1;ratioP1;P1;durP2;ratioP2;P2;SDS_P1;SDS_P2;PMS_P1;PMS_P2;Temp;Humidity;BMP_temperature;BMP_pressure;BME280_temperature;BME280_humidity;BME280_pressure;Samples;Min_cycle;Max_cycle;Signal;HPM_P1;HPM_P2
2022/07/20 00:00:47;;;;;;;5.25;3.58;;;12.70;99.90;;;;;;5072854;28;20469;-77
2022/07/20 00:03:15;;;;;;;6.35;3.97;;;12.70;99.90;;;;;;5072925;28;20028;-76
2022/07/20 00:05:43;;;;;;;6.75;3.90;;;12.50;99.90;;;;;;5073773;28;20027;-77
2022/07/20 00:08:11;;;;;;;5.72;5.10;;;12.40;99.90;;;;;;5072715;28;20033;-78
2022/07/20 00:13:24;;;;;;;5.97;4.50;;;12.10;99.90;;;;;;5073364;28;20066;-75
2022/07/20 00:15:52;;;;;;;6.40;4.88;;;12.00;99.90;;;;;;5073363;28;20031;-77
2022/07/20 00:18:19;;;;;;;5.60;4.38;;;12.00;99.90;;;;;;5072115;28;20052;-77
2022/07/20 00:20:46;;;;;;;5.90;5.07;;;12.00;99.90;;;;;;5071729;28;20094;-77
2022/07/20 00:23:14;;;;;;;5.88;5.30;;;12.00;99.90;;;;;;5072205;28;20440;-77
2022/07/20 00:25:42;;;;;;;7.13;5.68;;;12.20;99.90;;;;;;5072115;28;20028;-77
2022/07/20 00:28:10;;;;;;;5.32;4.82;;;12.20;99.90;;;;;;5072024;28;20028;-78
2022/07/20 00:30:37;;;;;;;5.53;5.03;;;12.30;99.90;;;;;;5073493;28;20021;-77
2022/07/20 00:33:04;;;;;;;6.82;5.22;;;12.20;99.90;;;;;;5072521;28;20052;-78
2022/07/20 00:35:32;;;;;;;6.15;5.60;;;12.30;99.90;;;;;;5073892;28;20017;-77
2022/07/20 00:37:59;;;;;;;8.10;6.20;;;12.30;99.90;;;;;;5072282;28;20501;-78
2022/07/20 00:40:26;;;;;;;7.85;4.97;;;12.50;99.90;;;;;;5072225;28;20020;-77
2022/07/20 00:42:54;;;;;;;9.23;6.28;;;12.50;99.90;;;;;;5071705;28;20025;-77
2022/07/20 00:45:21;;;;;;;7.45;5.22;;;12.70;99.90;;;;;;5072713;28;20503;-78
2022/07/20 00:47:48;;;;;;;5.18;4.75;;;12.80;99.90;;;;;;5072478;28;20036;-77
2022/07/20 00:50:16;;;;;;;6.75;4.88;;;12.80;99.90;;;;;;5076742;28;20392;-78
2022/07/20 00:52:43;;;;;;;5.13;4.57;;;12.90;99.90;;;;;;5076102;28;20111;-78
2022/07/20 00:55:14;;;;;;;5.25;4.75;;;13.00;99.90;;;;;;5076114;28;20549;-79
2022/07/20 00:57:42;;;;;;;5.05;4.53;;;13.10;99.90;;;;;;5075968;28;20025;-78
2022/07/20 01:00:10;;;;;;;6.32;4.68;;;13.20;99.90;;;;;;5075509;28;20039;-78
2022/07/20 01:02:39;;;;;;;5.28;4.20;;;13.20;99.90;;;;;;5075424;28;20492;-79
2022/07/20 01:05:15;;;;;;;4.82;4.18;;;13.30;99.90;;;;;;5075503;28;20021;-78
2022/07/20 01:07:48;;;;;;;4.22;3.78;;;13.40;99.90;;;;;;5076673;28;20032;-78
2022/07/20 01:10:19;;;;;;;5.65;3.60;;;13.50;99.90;;;;;;5074814;28;20054;-78
2022/07/20 01:12:50;;;;;;;5.05;3.30;;;13.60;99.90;;;;;;5076126;28;20020;-77
2022/07/20 01:15:18;;;;;;;3.92;3.10;;;13.80;99.90;;;;;;5077202;28;20487;-78
2022/07/20 01:17:46;;;;;;;6.18;3.53;;;13.90;99.90;;;;;;5075081;28;20028;-78
2022/07/20 01:20:18;;;;;;;4.45;2.90;;;14.30;99.90;;;;;;5075240;28;20036;-77
2022/07/20 01:22:47;;;;;;;4.13;2.72;;;14.60;99.90;;;;;;5074589;28;20396;-77
2022/07/20 01:25:14;;;;;;;4.13;2.60;;;14.80;99.90;;;;;;5074894;28;20499;-77
2022/07/20 01:27:42;;;;;;;5.30;2.72;;;14.80;99.90;;;;;;5075037;28;20480;-78
2022/07/20 01:30:11;;;;;;;2.90;2.22;;;15.10;99.90;;;;;;5074527;28;20032;-78
2022/07/20 01:32:38;;;;;;;3.50;2.20;;;15.10;99.90;;;;;;5074487;28;20017;-78
2022/07/20 01:35:07;;;;;;;2.50;1.50;;;14.90;99.90;;;;;;5074565;28;20074;-77
2022/07/20 01:37:34;;;;;;;4.15;1.70;;;14.90;99.90;;;;;;5057997;28;20021;-78
2022/07/20 01:40:01;;;;;;;2.97;1.67;;;14.70;99.90;;;;;;5074342;28;20067;-77
2022/07/20 01:42:29;;;;;;;3.00;1.50;;;14.50;99.90;;;;;;5075307;28;20070;-77
2022/07/20 01:44:56;;;;;;;5.43;2.15;;;14.50;99.90;;;;;;5074022;28;20370;-77
2022/07/20 01:47:23;;;;;;;3.30;1.70;;;14.50;99.90;;;;;;5073618;28;20024;-77
2022/07/20 01:49:51;;;;;;;2.88;1.27;;;14.50;99.90;;;;;;5075455;28;20155;-75
2022/07/20 01:52:18;;;;;;;2.65;1.20;;;14.40;99.90;;;;;;5074838;28;20021;-75
2022/07/20 01:54:45;;;;;;;3.10;1.23;;;14.30;99.90;;;;;;5073701;28;20046;-77
2022/07/20 01:57:13;;;;;;;1.13;0.80;;;14.40;99.90;;;;;;5073671;28;20021;-76
2022/07/20 01:59:40;;;;;;;1.75;0.77;;;14.40;99.90;;;;;;5074341;28;20434;-76
2022/07/20 02:02:07;;;;;;;3.38;1.08;;;14.50;99.90;;;;;;5073502;28;20088;-76
2022/07/20 02:04:35;;;;;;;2.72;1.00;;;14.60;99.90;;;;;;5073472;28;20115;-76
2022/07/20 02:07:03;;;;;;;2.53;0.80;;;14.60;99.90;;;;;;5074922;28;20020;-76
2022/07/20 02:09:31;;;;;;;2.55;1.10;;;14.60;99.90;;;;;;5073316;28;20095;-76
2022/07/20 02:11:58;;;;;;;3.13;1.10;;;14.60;99.90;;;;;;5074730;28;20021;-76
2022/07/20 02:14:26;;;;;;;3.63;1.00;;;14.60;99.90;;;;;;5073336;28;20020;-76
2022/07/20 02:16:53;;;;;;;2.47;1.20;;;14.70;99.90;;;;;;5074662;28;20422;-76
2022/07/20 02:19:20;;;;;;;3.45;1.30;;;14.90;99.90;;;;;;5074574;28;20078;-76
2022/07/20 02:21:48;;;;;;;3.85;1.10;;;14.90;99.90;;;;;;5073158;28;20024;-75
2022/07/20 02:24:15;;;;;;;3.20;1.08;;;15.20;99.90;;;;;;5074746;28;20469;-75
2022/07/20 02:26:42;;;;;;;4.78;1.30;;;15.50;99.90;;;;;;5073079;28;20035;-76
2022/07/20 02:29:11;;;;;;;3.60;1.30;;;15.30;99.90;;;;;;5074093;28;20025;-76
2022/07/20 02:31:38;;;;;;;2.80;1.10;;;15.10;99.90;;;;;;5074175;28;20101;-77
2022/07/20 02:34:06;;;;;;;2.97;1.10;;;14.80;99.90;;;;;;5072875;28;20047;-76
2022/07/20 02:36:33;;;;;;;3.80;1.00;;;14.50;99.90;;;;;;5072808;28;20020;-76
2022/07/20 02:39:00;;;;;;;3.25;1.30;;;14.70;99.90;;;;;;5072646;28;20033;-75
2022/07/20 02:41:28;;;;;;;3.90;1.60;;;14.90;99.90;;;;;;5072759;28;20021;-76
2022/07/20 02:43:55;;;;;;;5.07;1.40;;;14.70;99.90;;;;;;5074195;28;20063;-75
2022/07/20 02:46:23;;;;;;;3.17;1.35;;;14.80;99.90;;;;;;5072463;28;20107;-76
2022/07/20 02:48:50;;;;;;;2.53;1.13;;;14.90;99.90;;;;;;5072052;28;20048;-76
2022/07/20 02:51:17;;;;;;;2.28;0.98;;;14.80;99.90;;;;;;5072548;28;20025;-76
2022/07/20 02:53:45;;;;;;;3.28;0.93;;;15.10;99.90;;;;;;5073987;28;20020;-76
2022/07/20 02:56:12;;;;;;;1.67;0.73;;;15.20;99.90;;;;;;5074054;28;20028;-77
2022/07/20 02:58:40;;;;;;;2.83;0.88;;;15.50;99.90;;;;;;5072394;28;20028;-76
2022/07/20 03:01:07;;;;;;;3.00;0.90;;;15.80;99.90;;;;;;5072353;28;20028;-76
2022/07/20 03:03:35;;;;;;;2.75;0.80;;;15.80;99.90;;;;;;5073844;28;20039;-75
2022/07/20 03:06:02;;;;;;;1.55;0.65;;;15.60;99.90;;;;;;5072184;28;20085;-75
2022/07/20 03:08:30;;;;;;;4.10;0.70;;;15.60;99.90;;;;;;5055682;28;20529;-74
2022/07/20 03:10:58;;;;;;;1.70;0.98;;;15.50;99.90;;;;;;5071272;28;20120;-75
2022/07/20 03:13:25;;;;;;;2.10;0.73;;;15.50;99.90;;;;;;5072094;28;20476;-76
2022/07/20 03:15:53;;;;;;;3.17;1.05;;;15.50;99.90;;;;;;5072093;28;20016;-76
2022/07/20 03:18:20;;;;;;;2.30;0.60;;;15.40;99.90;;;;;;5072121;28;20025;-77
2022/07/20 03:20:47;;;;;;;2.47;0.75;;;15.20;99.90;;;;;;5071855;28;20024;-75
2022/07/20 03:23:15;;;;;;;1.75;0.60;;;15.20;99.90;;;;;;5073422;28;20024;-75
2022/07/20 03:25:42;;;;;;;2.10;0.90;;;15.10;99.90;;;;;;5073133;28;20060;-76
2022/07/20 03:28:10;;;;;;;3.50;1.00;;;15.20;99.90;;;;;;5071797;28;20392;-76
2022/07/20 03:30:37;;;;;;;2.45;1.10;;;15.30;99.90;;;;;;5073082;28;20020;-75
2022/07/20 03:33:05;;;;;;;2.10;0.77;;;15.40;99.90;;;;;;5073291;28;20064;-75
2022/07/20 03:35:32;;;;;;;1.38;0.60;;;15.20;99.90;;;;;;5072932;28;20020;-76
2022/07/20 03:38:00;;;;;;;2.60;0.80;;;15.20;99.90;;;;;;5071794;28;20033;-74
2022/07/20 03:40:27;;;;;;;1.83;0.60;;;15.30;99.90;;;;;;5072812;28;20020;-74
2022/07/20 03:42:55;;;;;;;3.25;0.90;;;15.10;99.90;;;;;;5071627;28;20480;-75
2022/07/20 03:45:22;;;;;;;3.45;0.95;;;14.90;99.90;;;;;;5073005;28;20052;-75
2022/07/20 03:47:49;;;;;;;2.45;0.80;;;14.90;99.90;;;;;;5072271;28;20131;-74
2022/07/20 03:50:17;;;;;;;3.13;0.82;;;15.10;99.90;;;;;;5072817;28;20024;-74
2022/07/20 03:52:44;;;;;;;3.78;0.77;;;15.10;99.90;;;;;;5071507;28;20112;-74
2022/07/20 03:55:11;;;;;;;1.85;0.80;;;15.20;99.90;;;;;;5072825;28;20441;-74
2022/07/20 03:57:39;;;;;;;1.98;0.95;;;15.30;99.90;;;;;;5072721;28;20385;-74
2022/07/20 04:00:07;;;;;;;3.20;0.90;;;15.50;99.90;;;;;;5071410;28;20025;-75
2022/07/20 04:02:35;;;;;;;4.43;1.40;;;15.50;99.90;;;;;;5072908;28;20025;-74
2022/07/20 04:05:02;;;;;;;3.17;0.93;;;15.50;99.90;;;;;;5072799;28;20029;-74
2022/07/20 04:07:29;;;;;;;3.03;1.10;;;15.70;99.90;;;;;;5071529;28;20036;-75
2022/07/20 04:09:57;;;;;;;3.13;1.00;;;15.90;99.90;;;;;;5072755;28;20029;-75
2022/07/20 04:12:25;;;;;;;2.78;0.80;;;16.00;99.90;;;;;;5071340;28;20058;-75
2022/07/20 04:14:54;;;;;;;3.13;0.77;;;15.80;99.90;;;;;;5072651;28;20020;-74
2022/07/20 04:17:22;;;;;;;2.47;0.80;;;15.70;99.90;;;;;;5072525;28;20024;-74
2022/07/20 04:19:50;;;;;;;3.15;1.00;;;15.50;99.90;;;;;;5072505;28;20480;-75
2022/07/20 04:22:18;;;;;;;3.22;1.10;;;15.50;99.90;;;;;;5074231;28;20020;-75
2022/07/20 04:24:45;;;;;;;5.00;1.17;;;15.50;99.90;;;;;;5076747;28;20051;-75
2022/07/20 04:27:12;;;;;;;4.03;0.80;;;15.80;99.90;;;;;;5077174;28;20028;-75
2022/07/20 04:29:40;;;;;;;3.80;0.90;;;16.10;99.90;;;;;;5076866;28;20455;-75
2022/07/20 04:32:07;;;;;;;3.47;0.90;;;16.20;99.90;;;;;;5076554;28;20110;-75
2022/07/20 04:34:35;;;;;;;4.47;0.70;;;16.40;99.90;;;;;;5076543;28;20032;-74
2022/07/20 04:37:02;;;;;;;2.28;0.52;;;16.70;99.90;;;;;;5076458;28;20028;-74
2022/07/20 04:39:30;;;;;;;3.50;0.88;;;16.80;99.90;;;;;;5075086;28;20067;-74
2022/07/20 04:41:57;;;;;;;1.95;0.63;;;16.80;99.90;;;;;;5074979;28;20090;-74
2022/07/20 04:44:25;;;;;;;3.53;0.90;;;16.90;99.90;;;;;;5076329;28;20088;-75
2022/07/20 04:46:52;;;;;;;1.83;0.50;;;16.80;99.90;;;;;;5074915;28;20078;-75
2022/07/20 04:49:20;;;;;;;4.13;0.80;;;16.40;99.90;;;;;;5076030;28;20385;-74
2022/07/20 04:51:47;;;;;;;4.45;0.40;;;16.30;99.90;;;;;;5074802;28;20020;-75
2022/07/20 04:54:14;;;;;;;1.88;0.32;;;15.80;99.90;;;;;;5074898;28;20042;-75
2022/07/20 04:56:42;;;;;;;2.67;0.77;;;15.40;99.90;;;;;;5074770;28;20094;-74
2022/07/20 04:59:09;;;;;;;3.65;0.63;;;15.20;99.90;;;;;;5074987;28;20020;-74
2022/07/20 05:01:38;;;;;;;2.42;0.50;;;15.00;99.90;;;;;;5074756;28;20066;-74
2022/07/20 05:04:05;;;;;;;3.95;0.70;;;14.90;99.90;;;;;;5074612;28;20028;-74
2022/07/20 05:06:32;;;;;;;4.68;1.02;;;14.70;99.90;;;;;;5074676;28;20029;-74
2022/07/20 05:09:00;;;;;;;4.43;1.13;;;14.40;99.90;;;;;;5074329;28;20028;-74
2022/07/20 05:11:29;;;;;;;5.43;1.38;;;14.10;99.90;;;;;;5074409;28;20021;-74
2022/07/20 05:13:56;;;;;;;3.40;0.80;;;14.00;99.90;;;;;;5075570;28;20028;-74
2022/07/20 05:16:24;;;;;;;5.20;1.00;;;13.90;99.90;;;;;;5075631;28;20499;-75
2022/07/20 05:18:51;;;;;;;5.53;1.48;;;13.80;99.90;;;;;;5074104;28;20021;-76
2022/07/20 05:21:18;;;;;;;6.68;1.25;;;13.70;99.90;;;;;;5074198;28;20017;-75
2022/07/20 05:23:46;;;;;;;5.18;1.10;;;13.70;99.90;;;;;;5075526;28;20021;-75
2022/07/20 05:26:13;;;;;;;8.15;1.70;;;13.60;99.90;;;;;;5074128;28;20021;-75
2022/07/20 05:28:43;;;;;;;6.07;1.67;;;13.60;99.90;;;;;;5075334;28;20023;-75
2022/07/20 05:31:14;;;;;;;5.95;1.13;;;13.60;99.90;;;;;;5075542;28;20534;-76
2022/07/20 05:33:42;;;;;;;2.65;1.08;;;13.60;99.90;;;;;;5073279;28;20029;-74
2022/07/20 05:36:11;;;;;;;6.05;1.55;;;13.70;99.90;;;;;;5074043;28;20111;-73
2022/07/20 05:38:38;;;;;;;4.85;1.27;;;13.70;99.90;;;;;;5073975;28;20054;-73
2022/07/20 05:41:06;;;;;;;4.10;1.40;;;13.70;99.90;;;;;;5075260;28;20059;-74
2022/07/20 05:43:33;;;;;;;4.60;1.85;;;13.70;99.90;;;;;;5073735;28;20021;-76
2022/07/20 05:46:01;;;;;;;5.30;1.40;;;13.70;99.90;;;;;;5073671;28;20056;-75
2022/07/20 05:48:29;;;;;;;4.07;1.30;;;13.70;99.90;;;;;;5075010;28;20032;-75
2022/07/20 05:50:57;;;;;;;4.38;0.95;;;13.70;99.90;;;;;;5075004;28;20080;-74
2022/07/20 05:53:24;;;;;;;5.10;1.20;;;13.60;99.90;;;;;;5075008;28;20028;-74
2022/07/20 05:55:52;;;;;;;4.00;0.90;;;13.50;99.90;;;;;;5073690;28;20484;-74
2022/07/20 05:58:19;;;;;;;3.58;0.82;;;13.50;99.90;;;;;;5074867;28;20029;-74
2022/07/20 06:00:47;;;;;;;3.47;1.00;;;13.40;99.90;;;;;;5073448;28;20027;-74
2022/07/20 06:03:14;;;;;;;3.28;1.08;;;13.40;99.90;;;;;;5073588;28;20024;-74
2022/07/20 06:05:41;;;;;;;2.95;1.10;;;13.50;99.90;;;;;;5073476;28;20029;-75
2022/07/20 06:08:09;;;;;;;5.03;1.23;;;13.40;99.90;;;;;;5073503;28;20029;-74
2022/07/20 06:10:37;;;;;;;2.05;0.63;;;13.40;99.90;;;;;;5074632;28;20027;-75
2022/07/20 06:13:05;;;;;;;2.70;1.10;;;13.30;99.90;;;;;;5073449;28;20028;-74
2022/07/20 06:15:33;;;;;;;2.45;1.08;;;13.30;99.90;;;;;;5074426;28;20021;-73
2022/07/20 06:18:01;;;;;;;4.18;0.95;;;13.30;99.90;;;;;;5074695;28;20028;-74
2022/07/20 06:20:28;;;;;;;3.70;1.20;;;13.20;99.90;;;;;;5073102;28;20545;-73
2022/07/20 06:22:58;;;;;;;2.15;0.70;;;13.30;99.90;;;;;;5073282;28;20047;-72
2022/07/20 06:25:26;;;;;;;3.23;1.20;;;13.30;99.90;;;;;;5074488;28;20021;-76
2022/07/20 06:27:53;;;;;;;3.33;1.35;;;13.20;99.90;;;;;;5074377;28;20025;-73
2022/07/20 06:30:21;;;;;;;3.97;1.33;;;13.10;99.90;;;;;;5074336;28;20033;-75
2022/07/20 06:32:48;;;;;;;6.57;1.40;;;13.10;99.90;;;;;;5074284;28;20045;-76
2022/07/20 06:35:16;;;;;;;5.85;1.30;;;13.00;99.90;;;;;;5072925;28;20021;-75
2022/07/20 06:37:43;;;;;;;4.03;1.58;;;12.90;99.90;;;;;;5074223;28;20025;-75
2022/07/20 06:40:12;;;;;;;5.40;1.75;;;12.80;99.90;;;;;;5073986;28;20029;-74
2022/07/20 06:42:39;;;;;;;5.47;1.98;;;12.70;99.90;;;;;;5073992;28;20500;-75
2022/07/20 06:45:07;;;;;;;3.85;1.73;;;12.70;99.90;;;;;;5072590;28;20142;-75
2022/07/20 06:47:34;;;;;;;6.10;2.30;;;12.60;99.90;;;;;;5073820;28;20024;-74
2022/07/20 06:50:04;;;;;;;4.93;2.25;;;12.50;99.90;;;;;;5073866;28;20028;-74
2022/07/20 06:52:34;;;;;;;3.90;2.00;;;12.40;99.90;;;;;;5073863;28;20162;-75
2022/07/20 06:55:01;;;;;;;;;;;12.40;99.90;;;;;;5074266;28;20021;-75
2022/07/20 06:57:29;;;;;;;4.43;2.00;;;12.30;99.90;;;;;;5072533;28;19904;-76
2022/07/20 06:59:56;;;;;;;3.47;1.92;;;12.20;99.90;;;;;;5072433;28;20059;-76
2022/07/20 07:02:23;;;;;;;3.67;1.60;;;12.20;99.90;;;;;;5072318;28;20027;-73
2022/07/20 07:04:51;;;;;;;4.50;1.58;;;12.10;99.90;;;;;;5073673;28;20016;-73
2022/07/20 07:07:18;;;;;;;3.63;1.75;;;12.20;99.90;;;;;;5072164;28;20035;-72
2022/07/20 07:09:45;;;;;;;3.88;2.35;;;12.30;99.90;;;;;;5073390;28;20094;-73
2022/07/20 07:12:13;;;;;;;5.00;2.47;;;12.20;99.90;;;;;;5073408;28;20016;-75
2022/07/20 07:14:40;;;;;;;3.60;1.85;;;12.10;99.90;;;;;;5072211;28;20427;-76
2022/07/20 07:17:08;;;;;;;3.78;1.58;;;12.10;99.90;;;;;;5073447;28;20093;-75
2022/07/20 07:19:35;;;;;;;2.78;1.30;;;12.10;99.90;;;;;;5073373;28;20025;-75
2022/07/20 07:22:03;;;;;;;3.13;1.50;;;12.10;99.90;;;;;;5073498;28;20028;-75
2022/07/20 07:24:30;;;;;;;2.90;1.30;;;12.10;99.90;;;;;;5072064;28;20380;-74
2022/07/20 07:26:57;;;;;;;5.50;1.80;;;12.10;99.90;;;;;;5073184;28;20032;-74
2022/07/20 07:29:26;;;;;;;5.35;1.45;;;12.10;99.90;;;;;;5071862;28;20488;-74
2022/07/20 07:32:03;;;;;;;2.35;1.42;;;12.10;99.90;;;;;;5073187;28;20477;-75
2022/07/20 07:34:31;;;;;;;3.50;1.77;;;12.10;99.90;;;;;;5073244;28;20028;-74
2022/07/20 07:36:58;;;;;;;3.75;2.03;;;12.20;99.90;;;;;;5073277;28;20579;-75
2022/07/20 07:39:26;;;;;;;4.93;1.70;;;12.20;99.90;;;;;;5073044;28;20020;-74
2022/07/20 07:41:53;;;;;;;3.22;1.15;;;12.10;99.90;;;;;;5071889;28;20028;-75
2022/07/20 07:44:20;;;;;;;1.80;1.38;;;12.10;99.90;;;;;;5073092;28;20103;-75
2022/07/20 07:46:48;;;;;;;6.40;1.50;;;12.10;99.90;;;;;;5073199;28;20028;-75
2022/07/20 07:49:15;;;;;;;3.85;1.52;;;12.10;99.90;;;;;;5072899;28;20048;-74
2022/07/20 07:51:43;;;;;;;1.95;1.30;;;12.20;99.90;;;;;;5073216;28;20048;-73
2022/07/20 07:54:10;;;;;;;2.55;1.40;;;12.20;99.90;;;;;;5073067;28;20024;-72
2022/07/20 07:56:38;;;;;;;2.00;1.40;;;12.20;99.90;;;;;;5071229;28;20020;-74
2022/07/20 07:59:05;;;;;;;3.63;1.45;;;12.20;99.90;;;;;;5072867;28;20025;-75
2022/07/20 08:01:36;;;;;;;4.30;1.65;;;12.20;99.90;;;;;;5072918;28;20469;-76
2022/07/20 08:04:05;;;;;;;6.00;1.80;;;12.20;99.90;;;;;;5071874;28;20031;-76
2022/07/20 08:06:32;;;;;;;5.70;2.28;;;12.30;99.90;;;;;;5071501;28;20032;-76
2022/07/20 08:09:00;;;;;;;9.63;3.08;;;12.30;99.90;;;;;;5072967;28;20025;-76
2022/07/20 08:11:27;;;;;;;6.80;2.95;;;12.30;99.90;;;;;;5072966;28;20095;-75
2022/07/20 08:13:55;;;;;;;8.45;3.08;;;12.30;99.90;;;;;;5071712;28;20032;-75
2022/07/20 08:16:22;;;;;;;4.50;2.58;;;12.30;99.90;;;;;;5071611;28;20469;-74
2022/07/20 08:18:49;;;;;;;4.95;2.47;;;12.30;99.90;;;;;;5071557;28;20081;-75
2022/07/20 08:21:17;;;;;;;7.38;3.10;;;12.30;99.90;;;;;;5071470;28;20025;-76
2022/07/20 08:23:44;;;;;;;7.18;2.95;;;12.30;99.90;;;;;;5073006;28;20483;-76
2022/07/20 08:26:11;;;;;;;6.82;3.08;;;12.30;99.90;;;;;;5072800;28;20017;-76
2022/07/20 08:28:40;;;;;;;10.20;3.30;;;12.30;99.90;;;;;;5071373;28;20445;-76
2022/07/20 08:31:07;;;;;;;5.18;2.78;;;12.30;99.90;;;;;;5072612;28;20045;-76
2022/07/20 08:33:35;;;;;;;7.13;3.20;;;12.20;99.90;;;;;;5073052;28;20024;-75
2022/07/20 08:36:02;;;;;;;7.45;3.30;;;12.10;99.90;;;;;;5071305;28;20055;-75
2022/07/20 08:38:29;;;;;;;4.75;2.55;;;12.00;99.90;;;;;;5071219;28;20028;-75
2022/07/20 08:40:58;;;;;;;4.93;3.20;;;11.90;99.90;;;;;;5072879;28;20029;-74
2022/07/20 08:43:25;;;;;;;6.57;3.53;;;11.90;99.90;;;;;;5071105;28;20476;-75
2022/07/20 08:45:53;;;;;;;6.13;4.68;;;11.80;99.90;;;;;;5073074;28;20035;-75
2022/07/20 08:48:20;;;;;;;6.63;5.65;;;11.80;99.90;;;;;;5070922;28;20098;-75
2022/07/20 08:50:49;;;;;;;10.35;5.50;;;11.80;99.90;;;;;;5072273;28;20020;-75
2022/07/20 08:53:19;;;;;;;8.13;5.82;;;11.90;99.90;;;;;;5072473;28;20039;-75
2022/07/20 08:55:47;;;;;;;9.38;6.30;;;11.90;99.90;;;;;;5072422;28;20036;-75
2022/07/20 08:58:15;;;;;;;6.78;5.22;;;11.90;99.90;;;;;;5071070;28;20054;-76
2022/07/20 09:00:42;;;;;;;7.07;5.20;;;12.00;99.90;;;;;;5071235;28;20033;-75
2022/07/20 09:03:11;;;;;;;8.55;4.70;;;11.90;99.90;;;;;;5071013;28;20039;-74
2022/07/20 09:05:41;;;;;;;5.75;4.47;;;11.80;99.90;;;;;;5054559;28;20393;-74
2022/07/20 09:08:19;;;;;;;6.47;4.43;;;11.80;99.90;;;;;;5071256;28;20472;-74
2022/07/20 09:10:47;;;;;;;7.70;4.00;;;11.80;99.90;;;;;;5076049;28;20052;-73
2022/07/20 09:13:21;;;;;;;6.82;5.18;;;11.80;99.90;;;;;;5075897;28;20058;-73
2022/07/20 09:15:56;;;;;;;5.13;4.20;;;11.80;99.90;;;;;;5074736;28;20090;-74
2022/07/20 09:18:34;;;;;;;7.13;4.70;;;11.70;99.90;;;;;;5074601;28;20481;-76
2022/07/20 09:21:07;;;;;;;8.40;4.75;;;11.80;99.90;;;;;;5076150;28;20021;-75
2022/07/20 09:23:54;;;;;;;7.60;5.47;;;11.80;99.90;;;;;;5074391;28;20484;-75
2022/07/20 09:26:22;;;;;;;6.70;4.72;;;11.80;99.90;;;;;;5076115;28;20066;-74
2022/07/20 09:28:52;;;;;;;8.90;6.00;;;11.90;99.90;;;;;;5074458;28;20043;-75
2022/07/20 09:31:30;;;;;;;7.45;5.60;;;11.90;99.90;;;;;;5075523;28;20499;-76
2022/07/20 09:34:04;;;;;;;8.35;5.05;;;11.90;99.90;;;;;;5075818;28;20024;-76
2022/07/20 09:36:37;;;;;;;9.02;5.32;;;11.90;99.90;;;;;;5074232;28;20024;-77
2022/07/20 09:39:10;;;;;;;8.32;5.80;;;12.00;99.90;;;;;;5075560;28;20017;-78
2022/07/20 09:41:40;;;;;;;7.68;4.50;;;12.00;99.90;;;;;;5074418;28;20020;-78
2022/07/20 09:44:10;;;;;;;6.60;4.10;;;12.00;99.90;;;;;;5075497;28;20021;-78
2022/07/20 09:46:38;;;;;;;;;;;11.90;99.90;;;;;;5074885;28;20021;-78
2022/07/20 09:49:11;;;;;;;9.52;5.30;;;11.90;99.90;;;;;;5075670;28;19962;-78
2022/07/20 09:51:42;;;;;;;7.88;4.70;;;11.90;99.90;;;;;;5074099;28;20025;-77
2022/07/20 09:54:16;;;;;;;7.32;4.85;;;11.90;99.90;;;;;;5074423;28;20020;-75
2022/07/20 09:56:46;;;;;;;8.80;4.68;;;11.90;99.90;;;;;;5075501;28;20016;-76
2022/07/20 09:59:15;;;;;;;9.60;4.63;;;11.90;99.90;;;;;;5073871;28;20037;-75
2022/07/20 10:01:48;;;;;;;8.88;5.22;;;11.90;99.90;;;;;;5075115;28;20021;-75
2022/07/20 10:04:17;;;;;;;8.27;4.82;;;11.80;99.90;;;;;;5073678;28;20047;-75
2022/07/20 10:06:48;;;;;;;11.00;5.47;;;11.80;99.90;;;;;;5073889;28;20017;-76
2022/07/20 10:09:17;;;;;;;8.27;5.03;;;11.80;99.90;;;;;;5074983;28;20024;-74
2022/07/20 10:11:47;;;;;;;8.75;4.93;;;11.80;99.90;;;;;;5075276;28;20061;-76
2022/07/20 10:14:18;;;;;;;8.70;5.53;;;11.80;99.90;;;;;;5073511;28;20029;-75
2022/07/20 10:16:47;;;;;;;8.77;5.30;;;11.80;99.90;;;;;;5073710;28;20029;-75
2022/07/20 10:19:15;;;;;;;9.13;5.88;;;11.80;99.90;;;;;;5074459;28;20499;-75
2022/07/20 10:21:47;;;;;;;8.65;5.05;;;11.70;99.90;;;;;;5073360;28;20119;-75
2022/07/20 10:24:22;;;;;;;8.50;5.53;;;11.70;99.90;;;;;;5074571;28;20017;-74
2022/07/20 10:26:53;;;;;;;9.93;6.15;;;11.80;99.90;;;;;;5073140;28;20020;-75
2022/07/20 10:29:40;;;;;;;10.63;5.43;;;11.70;99.90;;;;;;5074502;28;20017;-76
2022/07/20 10:32:17;;;;;;;11.20;6.03;;;11.70;99.90;;;;;;5073362;28;20025;-76
2022/07/20 10:34:47;;;;;;;9.02;5.68;;;11.70;99.90;;;;;;5073177;28;20116;-77
2022/07/20 10:37:23;;;;;;;9.27;5.32;;;11.70;99.90;;;;;;5073192;28;20392;-76
2022/07/20 10:39:53;;;;;;;7.50;4.97;;;11.70;99.90;;;;;;5073065;28;20024;-76
2022/07/20 10:42:40;;;;;;;8.25;4.63;;;11.60;99.90;;;;;;5074206;28;20028;-78
2022/07/20 10:45:19;;;;;;;8.60;4.78;;;11.60;99.90;;;;;;5074552;28;20415;-76
2022/07/20 10:47:48;;;;;;;8.00;4.80;;;11.60;99.90;;;;;;5072830;28;20040;-76
2022/07/20 10:50:22;;;;;;;9.50;5.25;;;11.70;99.90;;;;;;5072834;28;20067;-77
2022/07/20 10:52:56;;;;;;;10.45;5.82;;;11.70;99.90;;;;;;5074925;28;20017;-77
2022/07/20 10:55:35;;;;;;;8.63;5.07;;;11.70;99.90;;;;;;5072918;28;20365;-77
2022/07/20 10:58:09;;;;;;;9.93;5.45;;;11.70;99.90;;;;;;5073033;28;20016;-77
2022/07/20 11:00:41;;;;;;;8.38;5.65;;;11.70;99.90;;;;;;5072935;28;20392;-78
2022/07/20 11:03:30;;;;;;;8.85;5.07;;;11.80;99.90;;;;;;5073150;28;20029;-77
2022/07/20 11:06:05;;;;;;;10.18;5.43;;;11.80;99.90;;;;;;5072958;28;20124;-77
2022/07/20 11:08:34;;;;;;;7.20;4.72;;;11.70;99.90;;;;;;5072748;28;20047;-78
2022/07/20 11:11:02;;;;;;;7.07;4.88;;;11.70;99.90;;;;;;5072569;28;20519;-76
2022/07/20 11:13:29;;;;;;;8.07;4.70;;;11.70;99.90;;;;;;5073830;28;20103;-77
2022/07/20 11:16:00;;;;;;;11.05;5.15;;;11.70;99.90;;;;;;5072342;28;20024;-76
2022/07/20 11:18:30;;;;;;;8.50;5.15;;;11.60;99.90;;;;;;5073953;28;20021;-75
2022/07/20 11:20:59;;;;;;;9.38;5.30;;;11.60;99.90;;;;;;5073554;28;20071;-79
2022/07/20 11:23:37;;;;;;;8.38;5.15;;;11.50;99.90;;;;;;5072691;28;20444;-79
2022/07/20 11:26:05;;;;;;;8.80;4.90;;;11.50;99.90;;;;;;5073936;28;20024;-77
2022/07/20 11:28:35;;;;;;;8.13;4.95;;;11.50;99.90;;;;;;5072687;28;20031;-77
2022/07/20 11:31:03;;;;;;;6.85;4.90;;;11.40;99.90;;;;;;5073150;28;20024;-76
2022/07/20 11:33:33;;;;;;;8.65;5.68;;;11.30;99.90;;;;;;5071870;28;20028;-76
2022/07/20 11:36:04;;;;;;;9.43;5.73;;;11.30;99.90;;;;;;5073248;28;20020;-74
2022/07/20 11:38:52;;;;;;;9.60;5.50;;;11.30;99.90;;;;;;5071943;28;20025;-74
2022/07/20 11:41:31;;;;;;;9.25;5.55;;;11.30;99.90;;;;;;5073412;28;20029;-76
2022/07/20 11:44:00;;;;;;;6.63;4.10;;;11.30;99.90;;;;;;5073627;28;20485;-77
2022/07/20 11:46:30;;;;;;;7.85;4.47;;;11.30;99.90;;;;;;5072012;28;20024;-76
2022/07/20 11:49:00;;;;;;;8.10;5.30;;;11.40;99.90;;;;;;5073344;28;20158;-76
2022/07/20 11:51:29;;;;;;;8.30;5.40;;;11.40;99.90;;;;;;5071963;28;20033;-77
2022/07/20 11:54:01;;;;;;;7.80;5.35;;;11.40;99.90;;;;;;5072320;28;20420;-75
2022/07/20 11:56:31;;;;;;;6.28;5.55;;;11.40;99.90;;;;;;5071829;28;20047;-75
2022/07/20 11:59:00;;;;;;;8.77;5.95;;;11.50;99.90;;;;;;5072947;28;20028;-76
2022/07/20 12:01:35;;;;;;;7.68;5.85;;;11.50;99.90;;;;;;5072236;28;20036;-76
2022/07/20 12:04:08;;;;;;;8.15;6.13;;;11.50;99.90;;;;;;5073091;28;20025;-75
2022/07/20 12:06:39;;;;;;;7.93;5.57;;;11.50;99.90;;;;;;5071698;28;20028;-75
2022/07/20 12:09:14;;;;;;;8.07;5.45;;;11.50;99.90;;;;;;5071891;28;20040;-76
2022/07/20 12:12:04;;;;;;;8.55;6.20;;;11.50;99.90;;;;;;5071798;28;20028;-76
2022/07/20 12:14:31;;;;;;;9.63;7.07;;;11.50;99.90;;;;;;5073179;28;20017;-75
2022/07/20 12:17:18;;;;;;;12.25;7.75;;;11.40;99.90;;;;;;5071595;28;20020;-75
2022/07/20 12:19:48;;;;;;;10.15;7.10;;;11.40;99.90;;;;;;5072438;28;20036;-75
2022/07/20 12:22:22;;;;;;;10.73;7.35;;;11.40;99.90;;;;;;5072943;28;20067;-75
2022/07/20 12:25:09;;;;;;;10.95;7.40;;;11.40;99.90;;;;;;5071506;28;20037;-75
2022/07/20 12:27:38;;;;;;;9.55;7.80;;;11.40;99.90;;;;;;5072870;28;20540;-75
2022/07/20 12:30:39;;;;;;;10.80;8.23;;;11.40;99.90;;;;;;5071502;28;20033;-76
2022/07/20 12:33:13;;;;;;;11.13;8.45;;;11.40;99.90;;;;;;5050438;28;20024;-76
2022/07/20 12:35:48;;;;;;;10.52;8.13;;;11.40;99.90;;;;;;5072804;28;20096;-76
2022/07/20 12:38:17;;;;;;;11.27;7.72;;;11.40;99.90;;;;;;5071380;28;20119;-75
2022/07/20 12:40:50;;;;;;;8.77;7.22;;;11.40;99.90;;;;;;5071435;28;20025;-76
2022/07/20 12:43:35;;;;;;;10.75;7.47;;;11.40;99.90;;;;;;5073085;28;20024;-75
2022/07/20 12:46:07;;;;;;;9.25;7.82;;;11.40;99.90;;;;;;5076510;28;20035;-75
2022/07/20 12:48:36;;;;;;;10.98;6.88;;;11.50;99.90;;;;;;5076562;28;20049;-75
2022/07/20 12:51:05;;;;;;;12.13;7.63;;;11.50;99.90;;;;;;5076645;28;20028;-75
2022/07/20 12:53:33;;;;;;;10.68;7.57;;;11.50;99.90;;;;;;5076360;28;20024;-75
2022/07/20 12:56:01;;;;;;;10.98;7.03;;;11.50;99.90;;;;;;5076286;28;20021;-75
2022/07/20 12:58:28;;;;;;;10.23;7.75;;;11.50;99.90;;;;;;5074920;28;20031;-75